Time;durP1;ratioP1;P1;durP2;ratioP2;P2;SDS_P1;SDS_P2;PMS_P1;PMS_P2;Temp;Humidity;BMP_temperature;BMP_pressure;BME280_temperature;BME280_humidity;BME280_pressure;Samples;Min_cycle;Max_cycle;Signal;HPM_P1;HPM_P2
2022/05/06 00:00:07;;;;;;;17.40;7.80;;;11.00;99.90;;;7.81;100.00;101374.63;5031758;28;20038;-77
2022/05/06 00:02:34;;;;;;;10.43;7.22;;;11.00;99.90;;;7.80;100.00;101375.59;5032946;28;20056;-77
2022/05/06 00:05:04;;;;;;;14.10;7.30;;;10.90;99.90;;;7.74;100.00;101377.03;5032716;28;20112;-77
2022/05/06 00:07:33;;;;;;;11.93;7.50;;;10.90;99.90;;;7.70;100.00;101374.78;5032876;28;20045;-77
2022/05/06 00:10:03;;;;;;;11.90;7.43;;;10.90;99.90;;;7.68;100.00;101377.63;5032501;28;20049;-77
2022/05/06 00:12:30;;;;;;;21.33;7.75;;;10.80;99.90;;;7.64;100.00;101378.91;5032650;28;20045;-77
2022/05/06 00:14:58;;;;;;;12.27;7.80;;;10.80;99.90;;;7.60;100.00;101378.34;5030646;28;20148;-77
2022/05/06 00:17:25;;;;;;;13.50;7.47;;;10.70;99.90;;;7.57;100.00;101372.34;5031312;28;20389;-77
2022/05/06 00:19:52;;;;;;;13.93;7.65;;;10.70;99.90;;;7.54;100.00;101380.75;5032538;28;20085;-77
2022/05/06 00:22:21;;;;;;;11.95;7.53;;;10.60;99.90;;;7.54;100.00;101381.63;5032880;28;20077;-77
2022/05/06 00:24:49;;;;;;;12.70;7.43;;;10.60;99.90;;;7.49;100.00;101374.94;5032418;28;20052;-77
2022/05/06 00:27:16;;;;;;;12.88;7.38;;;10.60;99.90;;;7.42;100.00;101380.94;5027990;28;20049;-77
2022/05/06 00:29:43;;;;;;;13.00;7.55;;;10.60;99.90;;;7.41;100.00;101379.22;5031884;28;20073;-77
2022/05/06 00:32:10;;;;;;;14.40;7.75;;;10.50;99.90;;;7.39;100.00;101381.22;5032117;28;20056;-77
2022/05/06 00:34:38;;;;;;;10.90;7.68;;;10.50;99.90;;;7.38;100.00;101387.59;5032087;28;20049;-77
2022/05/06 00:37:05;;;;;;;14.52;8.05;;;10.50;99.90;;;7.33;100.00;101386.31;5047431;28;20109;-77
2022/05/06 00:39:34;;;;;;;15.20;8.23;;;10.40;99.90;;;7.27;100.00;101376.91;5022141;28;20041;-77
2022/05/06 00:42:01;;;;;;;14.55;8.15;;;10.40;99.90;;;7.24;100.00;101378.06;5013201;28;20100;-77
2022/05/06 00:44:29;;;;;;;11.75;7.97;;;10.30;99.90;;;7.22;100.00;101380.06;5030648;28;20061;-77
2022/05/06 00:46:59;;;;;;;14.27;8.80;;;10.30;99.90;;;7.25;100.00;101381.63;5031451;28;20038;-77
2022/05/06 00:49:27;;;;;;;15.70;8.88;;;10.30;99.90;;;7.22;100.00;101392.75;5029174;28;20069;-77
2022/05/06 00:51:54;;;;;;;13.25;8.45;;;10.20;99.90;;;7.18;100.00;101385.91;5030947;28;20536;-77
2022/05/06 00:54:23;;;;;;;13.68;8.30;;;10.20;99.90;;;7.20;100.00;101387.47;5031684;28;20042;-77
2022/05/06 00:56:53;;;;;;;14.38;8.25;;;10.20;99.90;;;7.19;100.00;101390.31;5030808;28;20049;-77
2022/05/06 00:59:21;;;;;;;11.82;7.88;;;10.10;99.90;;;7.14;100.00;101387.16;5028402;28;20061;-78
2022/05/06 01:01:48;;;;;;;17.17;8.82;;;10.10;99.90;;;7.12;100.00;101387.31;5029779;28;20072;-77
2022/05/06 01:04:17;;;;;;;18.13;8.40;;;10.10;99.90;;;7.11;100.00;101388.31;5030806;28;20038;-77
2022/05/06 01:06:45;;;;;;;13.35;8.15;;;10.10;99.90;;;7.08;100.00;101385.03;5030261;28;20037;-77
2022/05/06 01:09:16;;;;;;;12.55;7.78;;;10.10;99.90;;;7.05;100.00;101387.03;5030346;28;20132;-77
2022/05/06 01:11:43;;;;;;;15.40;8.30;;;10.00;99.90;;;7.05;100.00;101384.31;5011613;28;20077;-77
2022/05/06 01:14:12;;;;;;;13.93;7.80;;;10.00;99.90;;;6.98;100.00;101385.00;5025251;28;20044;-77
2022/05/06 01:16:41;;;;;;;15.63;8.00;;;10.00;99.90;;;6.95;100.00;101383.47;5014586;28;20521;-77
2022/05/06 01:19:10;;;;;;;12.00;7.80;;;10.00;99.90;;;6.94;100.00;101379.03;5046508;28;20041;-77
2022/05/06 01:21:50;;;;;;;16.52;8.00;;;9.90;99.90;;;6.93;100.00;101389.97;5030920;28;20121;-77
2022/05/06 01:24:17;;;;;;;15.30;7.78;;;9.90;99.90;;;6.90;100.00;101387.56;5028763;28;20065;-77
2022/05/06 01:27:00;;;;;;;13.88;8.45;;;9.90;99.90;;;6.91;100.00;101392.84;5030717;28;20111;-77
2022/05/06 01:29:29;;;;;;;11.95;7.75;;;9.90;99.90;;;6.86;100.00;101389.69;5028875;28;20513;-77
2022/05/06 01:31:56;;;;;;;14.18;8.43;;;9.90;99.90;;;6.80;100.00;101387.56;5029772;28;20045;-77
2022/05/06 01:34:26;;;;;;;16.15;8.68;;;9.80;99.90;;;6.76;100.00;101394.22;5031303;28;20045;-77
2022/05/06 01:36:59;;;;;;;15.90;8.52;;;9.80;99.90;;;6.78;100.00;101397.66;5030358;28;20056;-77
2022/05/06 01:39:30;;;;;;;15.35;8.05;;;9.70;99.90;;;6.82;100.00;101399.94;5030714;28;20061;-77
2022/05/06 01:42:05;;;;;;;16.30;8.32;;;9.70;99.90;;;6.80;100.00;101399.22;5029347;28;20053;-77
2022/05/06 01:44:48;;;;;;;15.52;8.07;;;9.70;99.90;;;6.77;100.00;101401.34;5029179;28;20100;-77
2022/05/06 01:47:21;;;;;;;13.70;7.93;;;9.70;99.90;;;6.76;100.00;101399.63;5029631;28;20448;-77
2022/05/06 01:49:51;;;;;;;12.95;8.07;;;9.70;99.90;;;6.69;100.00;101388.50;5029219;28;20056;-77
2022/05/06 01:52:22;;;;;;;15.32;8.60;;;9.70;99.90;;;6.71;100.00;101397.34;5027678;28;20165;-77
2022/05/06 01:54:50;;;;;;;13.70;8.18;;;9.70;99.90;;;6.68;100.00;101402.16;5029410;28;20132;-77
2022/05/06 01:57:18;;;;;;;17.33;8.35;;;9.90;99.90;;;6.65;100.00;101401.44;5029174;28;20132;-77
2022/05/06 01:59:47;;;;;;;13.95;8.25;;;9.60;99.90;;;6.64;100.00;101401.59;5027951;28;20069;-77
2022/05/06 02:02:23;;;;;;;15.52;9.63;;;9.60;99.90;;;6.72;100.00;101404.47;5030216;28;20067;-77
2022/05/06 02:07:41;;;;;;;12.75;7.93;;;9.60;99.90;;;6.73;100.00;101402.63;5021399;28;20140;-77
2022/05/06 02:10:10;;;;;;;14.75;8.95;;;9.60;99.90;;;6.68;100.00;101404.88;5010372;28;20080;-77
2022/05/06 02:12:40;;;;;;;15.70;9.40;;;9.60;99.90;;;6.65;100.00;101400.59;5040064;28;20502;-77
2022/05/06 02:15:23;;;;;;;15.45;8.95;;;9.60;99.90;;;6.65;100.00;101406.00;5015915;28;20092;-77
2022/05/06 02:17:53;;;;;;;13.80;8.90;;;9.60;99.90;;;6.64;100.00;101405.16;5030136;28;20059;-77
2022/05/06 02:20:42;;;;;;;14.80;8.57;;;9.70;99.90;;;6.57;100.00;101400.44;5029040;28;20405;-77
2022/05/06 02:23:33;;;;;;;15.27;9.55;;;9.50;99.90;;;6.53;100.00;101399.84;5029489;28;20042;-77
2022/05/06 02:26:14;;;;;;;15.13;8.80;;;9.50;99.90;;;6.50;100.00;101402.81;5027551;28;20049;-77
2022/05/06 02:29:02;;;;;;;17.02;9.00;;;9.50;99.90;;;6.50;100.00;101408.22;5024581;28;20065;-77
2022/05/06 02:34:18;;;;;;;16.92;10.15;;;9.40;99.90;;;6.45;100.00;101396.94;5006636;28;20051;-80
2022/05/06 02:36:54;;;;;;;15.65;8.75;;;9.40;99.90;;;6.44;100.00;101408.78;5007180;28;20108;-80
2022/05/06 02:39:28;;;;;;;17.02;9.75;;;9.40;99.90;;;6.41;100.00;101409.88;5008613;28;20073;-80
2022/05/06 02:42:15;;;;;;;16.15;9.32;;;9.40;99.90;;;6.37;100.00;101411.16;5021858;28;20054;-79
2022/05/06 02:44:48;;;;;;;16.58;8.95;;;9.30;99.90;;;6.33;100.00;101406.16;5023358;28;20045;-80
2022/05/06 02:47:16;;;;;;;16.95;9.25;;;9.30;99.90;;;6.26;100.00;101405.84;5003375;28;20097;-80
2022/05/06 02:49:44;;;;;;;17.05;9.98;;;9.20;99.90;;;6.28;100.00;101406.53;5007467;28;20414;-79
2022/05/06 02:52:14;;;;;;;18.27;9.88;;;9.20;99.90;;;6.30;100.00;101398.31;5008590;28;20085;-80
2022/05/06 02:54:43;;;;;;;14.80;8.95;;;9.20;99.90;;;6.29;100.00;101392.06;5000604;28;20034;-80
2022/05/06 02:57:14;;;;;;;15.88;8.90;;;9.20;99.90;;;6.25;100.00;101396.88;4995588;28;20222;-80
2022/05/06 02:59:43;;;;;;;15.35;8.85;;;9.20;99.90;;;6.21;100.00;101392.72;5008257;28;20054;-80
2022/05/06 03:02:10;;;;;;;17.40;9.20;;;9.10;99.90;;;6.17;100.00;101391.28;4989620;28;20093;-80
2022/05/06 03:04:38;;;;;;;18.40;9.70;;;9.10;99.90;;;6.17;100.00;101390.41;4999965;28;20108;-79
2022/05/06 03:07:08;;;;;;;15.98;9.15;;;9.10;99.90;;;6.13;100.00;101387.16;5021891;28;20095;-80
2022/05/06 03:09:52;;;;;;;15.55;9.15;;;9.00;99.90;;;6.15;100.00;101385.16;4997284;28;20073;-80
2022/05/06 03:12:22;;;;;;;16.05;9.55;;;9.00;99.90;;;6.08;100.00;101394.78;5008156;28;20407;-80
2022/05/06 03:14:57;;;;;;;13.25;8.48;;;9.00;99.90;;;6.04;100.00;101390.66;4997535;28;20039;-80
2022/05/06 03:17:36;;;;;;;14.45;8.10;;;8.90;99.90;;;6.03;100.00;101388.94;5008091;28;20112;-79
2022/05/06 03:20:07;;;;;;;12.77;8.48;;;8.90;99.90;;;6.03;100.00;101392.47;4997155;28;20077;-80
2022/05/06 03:22:41;;;;;;;16.65;8.77;;;8.90;99.90;;;6.00;100.00;101386.50;4991146;28;20588;-79
2022/05/06 03:25:11;;;;;;;14.50;8.43;;;8.90;99.90;;;5.99;100.00;101391.03;4993105;28;20058;-79
2022/05/06 03:30:26;;;;;;;14.63;8.35;;;8.90;99.90;;;5.93;100.00;101390.69;5006953;28;20053;-80
2022/05/06 03:32:59;;;;;;;12.82;8.13;;;8.90;99.90;;;5.94;100.00;101392.38;5005576;28;20066;-79
2022/05/06 03:35:28;;;;;;;15.63;8.50;;;8.80;99.90;;;5.87;100.00;101390.22;4997066;28;20050;-80
2022/05/06 03:37:57;;;;;;;15.88;8.30;;;8.80;99.90;;;5.84;100.00;101385.06;5005362;28;20042;-80
2022/05/06 03:40:27;;;;;;;14.05;8.52;;;8.80;99.90;;;5.87;100.00;101394.78;5009449;28;20712;-79
2022/05/06 03:42:55;;;;;;;16.65;9.25;;;8.80;99.90;;;5.82;100.00;101395.16;5005334;28;20422;-80
2022/05/06 03:45:23;;;;;;;14.27;8.48;;;8.70;99.90;;;5.81;100.00;101395.31;5000501;28;20576;-86
2022/05/06 03:47:52;;;;;;;12.55;8.43;;;8.70;99.90;;;5.77;100.00;101405.53;5006407;28;20057;-85
2022/05/06 03:53:06;;;;;;;13.73;8.65;;;8.60;99.90;;;5.81;100.00;101396.16;4994896;28;20414;-84
2022/05/06 03:55:35;;;;;;;14.50;8.35;;;8.70;99.90;;;5.81;100.00;101396.16;5007513;28;20053;-84
2022/05/06 03:58:02;;;;;;;17.40;8.77;;;8.70;99.90;;;5.82;100.00;101405.97;5007409;28;20100;-84
2022/05/06 04:00:31;;;;;;;15.15;8.85;;;8.70;99.90;;;5.80;100.00;101402.53;5006886;28;20037;-84
2022/05/06 04:03:05;;;;;;;12.10;8.23;;;8.60;99.90;;;5.78;100.00;101401.81;5001672;28;20054;-84
2022/05/06 04:05:33;;;;;;;15.45;8.68;;;8.60;99.90;;;5.79;100.00;101405.41;5004330;28;20046;-84
2022/05/06 04:08:01;;;;;;;21.77;9.52;;;8.50;99.90;;;5.78;100.00;101407.22;5002071;28;20135;-84
2022/05/06 04:10:30;;;;;;;14.85;8.43;;;8.60;99.90;;;5.80;100.00;101410.66;5007904;28;20140;-84
2022/05/06 04:13:02;;;;;;;14.60;8.88;;;8.60;99.90;;;5.85;100.00;101415.66;4997231;28;20054;-84
2022/05/06 04:15:29;;;;;;;;;;;8.60;99.90;;;5.82;100.00;101414.06;4995442;28;20073;-82
2022/05/06 04:17:57;;;;;;;13.50;8.20;;;8.60;99.90;;;5.88;100.00;101415.38;5011018;28;19921;-83
2022/05/06 04:23:31;;;;;;;15.30;8.75;;;8.70;99.90;;;5.85;100.00;101413.81;5007968;28;20050;-84
2022/05/06 04:26:06;;;;;;;14.80;8.57;;;8.60;99.90;;;5.92;100.00;101415.97;5004304;28;20056;-85
2022/05/06 04:28:38;;;;;;;15.45;9.38;;;8.60;99.90;;;5.93;100.00;101417.72;5007081;28;20062;-83
2022/05/06 04:31:09;;;;;;;14.43;8.65;;;8.60;99.90;;;6.01;100.00;101415.22;4991839;28;20046;-84
2022/05/06 04:33:41;;;;;;;17.13;10.00;;;8.60;99.90;;;6.09;100.00;101415.41;5001175;28;20054;-84
2022/05/06 04:36:12;;;;;;;15.55;9.65;;;8.70;99.90;;;6.18;100.00;101421.88;5005370;28;20046;-83
2022/05/06 04:38:43;;;;;;;;;;;8.70;99.90;;;6.25;100.00;101415.78;5008462;28;20451;-83
2022/05/06 04:41:11;;;;;;;17.45;9.73;;;8.70;99.90;;;6.34;100.00;101414.16;5010342;28;20092;-83
2022/05/06 04:43:41;;;;;;;14.23;9.18;;;8.80;99.90;;;6.47;100.00;101422.00;5011167;28;20038;-84
2022/05/06 04:46:08;;;;;;;16.55;8.93;;;8.80;99.90;;;6.54;100.00;101427.75;5002738;28;20062;-82
2022/05/06 04:48:37;;;;;;;14.32;8.88;;;8.90;99.90;;;6.54;100.00;101423.19;5000384;28;20112;-83
2022/05/06 04:51:07;;;;;;;14.55;8.95;;;9.00;99.90;;;6.67;100.00;101416.69;5000616;28;20140;-84
2022/05/06 04:53:34;;;;;;;15.15;8.82;;;9.30;99.90;;;6.72;100.00;101426.13;5009891;28;20133;-83
2022/05/06 04:56:01;;;;;;;15.38;9.30;;;9.10;99.90;;;6.92;100.00;101426.16;5007239;28;20050;-77
2022/05/06 04:58:38;;;;;;;18.42;8.93;;;9.10;99.90;;;7.19;100.00;101430.91;5004864;28;20452;-85
2022/05/06 05:01:11;;;;;;;14.13;8.45;;;9.30;99.90;;;7.37;100.00;101429.25;5002997;28;20416;-81
2022/05/06 05:03:40;;;;;;;16.13;8.82;;;9.40;99.90;;;7.48;100.00;101432.81;5004899;28;20060;-82
2022/05/06 05:06:08;;;;;;;18.05;8.88;;;9.40;99.90;;;7.56;100.00;101435.69;5008917;28;20053;-81
2022/05/06 05:08:37;;;;;;;25.25;9.73;;;9.60;99.90;;;7.63;100.00;101443.09;4998386;28;20180;-81
2022/05/06 05:11:04;;;;;;;16.20;9.45;;;9.70;99.90;;;7.78;100.00;101443.50;5010145;28;20050;-80
2022/05/06 05:13:40;;;;;;;15.60;8.35;;;9.70;99.90;;;7.97;100.00;101436.34;4999773;28;20085;-81
2022/05/06 05:16:16;;;;;;;17.58;8.68;;;9.80;99.90;;;8.05;100.00;101435.63;5010118;28;20046;-84
2022/05/06 05:18:43;;;;;;;19.02;9.32;;;9.90;99.90;;;8.14;100.00;101441.03;5008399;28;20080;-82
2022/05/06 05:21:11;;;;;;;19.00;9.07;;;10.00;99.90;;;8.28;100.00;101437.00;5010521;28;20054;-82
2022/05/06 05:23:39;;;;;;;16.75;8.90;;;10.00;99.90;;;8.49;100.00;101439.56;5001137;28;20057;-82
2022/05/06 05:26:07;;;;;;;15.48;9.13;;;10.10;99.90;;;8.61;100.00;101443.78;5006070;28;20079;-83
2022/05/06 05:28:36;;;;;;;16.77;9.15;;;10.20;99.90;;;8.71;100.00;101438.31;5003827;28;20056;-82
2022/05/06 05:31:03;;;;;;;14.98;9.05;;;10.30;99.90;;;8.77;100.00;101445.00;5021374;28;20469;-83
2022/05/06 05:33:34;;;;;;;17.80;8.90;;;10.40;99.90;;;8.98;100.00;101456.44;5008393;28;20081;-83
2022/05/06 05:36:01;;;;;;;20.42;10.30;;;10.50;99.90;;;9.09;100.00;101446.41;5002699;28;20141;-83
2022/05/06 05:38:28;;;;;;;23.88;9.48;;;10.60;99.90;;;9.20;100.00;101448.91;5002579;28;20042;-83
2022/05/06 05:40:57;;;;;;;21.85;9.48;;;10.80;99.90;;;9.32;100.00;101449.53;5010085;28;20532;-83
2022/05/06 05:49:03;;;;;;;26.27;9.05;;;11.20;99.90;;;9.62;100.00;101448.31;5009052;28;20042;-84
2022/05/06 05:51:33;;;;;;;27.57;10.07;;;11.30;99.90;;;9.87;100.00;101459.41;5005635;28;20423;-84
2022/05/06 05:54:01;;;;;;;27.75;9.70;;;11.40;99.90;;;10.06;100.00;101451.06;5009759;28;20052;-84
2022/05/06 05:56:32;;;;;;;;;;;11.50;99.90;;;10.45;100.00;101449.84;5009470;28;20069;-84
2022/05/06 05:59:00;;;;;;;29.35;9.80;;;11.70;99.90;;;10.78;100.00;101453.59;5009307;28;19967;-84
2022/05/06 06:01:29;;;;;;;20.85;9.45;;;11.90;99.90;;;11.02;100.00;101441.09;5000408;28;20384;-86
2022/05/06 06:03:59;;;;;;;18.08;9.63;;;12.00;99.90;;;11.29;100.00;101442.69;5004097;28;20061;-85
2022/05/06 06:06:29;;;;;;;19.92;9.98;;;12.20;99.90;;;11.65;98.20;101445.16;5001191;28;20054;-85
2022/05/06 06:08:57;;;;;;;24.88;9.50;;;12.40;99.90;;;11.86;97.56;101441.91;5007979;28;20564;-89
2022/05/06 06:11:25;;;;;;;16.75;9.77;;;12.70;99.90;;;12.15;96.01;101446.03;5006751;28;20042;-87
2022/05/06 06:13:54;;;;;;;22.65;9.15;;;12.90;99.90;;;12.70;93.63;101442.53;5009377;28;20045;-84
2022/05/06 06:16:24;;;;;;;24.38;10.00;;;13.10;99.90;;;12.98;91.40;101450.25;5009459;28;20046;-85
2022/05/06 06:18:52;;;;;;;18.83;10.35;;;13.40;99.90;;;13.19;90.74;101436.81;4991782;28;20062;-83
2022/05/06 06:21:23;;;;;;;21.73;10.50;;;13.70;99.80;;;13.55;90.19;101447.22;4999840;28;20045;-83
2022/05/06 06:23:52;;;;;;;16.60;8.80;;;14.30;99.30;;;13.93;88.88;101441.81;5006882;28;20133;-83
2022/05/06 06:26:20;;;;;;;20.55;9.55;;;14.80;96.80;;;14.21;86.92;101446.72;5004474;28;20132;-84
2022/05/06 06:28:48;;;;;;;19.33;9.60;;;15.40;94.90;;;14.70;86.22;101446.25;5025059;28;20070;-84
2022/05/06 06:31:15;;;;;;;21.98;9.57;;;15.80;94.40;;;15.02;82.97;101438.63;5001796;28;20041;-82
2022/05/06 06:33:45;;;;;;;19.73;9.98;;;16.10;92.70;;;15.36;86.24;101440.72;4999803;28;20042;-83
2022/05/06 06:36:18;;;;;;;17.23;10.10;;;16.50;93.70;;;16.60;82.07;101436.78;5014779;28;20065;-83
2022/05/06 06:38:45;;;;;;;18.10;9.25;;;16.60;93.00;;;17.85;75.09;101437.53;5008576;28;20132;-83
2022/05/06 06:41:13;;;;;;;18.45;9.65;;;16.70;92.40;;;18.70;70.87;101448.69;5008293;28;20441;-84
2022/05/06 06:43:41;;;;;;;17.08;9.02;;;16.90;92.40;;;18.99;67.60;101442.94;5009583;28;20084;-84
2022/05/06 06:46:23;;;;;;;19.00;10.85;;;17.10;91.90;;;18.41;66.65;101454.69;5007346;28;20041;-84
2022/05/06 06:49:13;;;;;;;21.38;10.00;;;17.10;89.50;;;17.89;68.11;101443.47;5005238;28;20054;-84
2022/05/06 06:52:04;;;;;;;16.85;10.02;;;17.30;87.70;;;17.75;67.83;101457.16;5001275;28;20050;-84
2022/05/06 06:54:32;;;;;;;22.38;11.00;;;17.30;86.80;;;17.52;70.65;101446.53;5009017;28;20038;-84
2022/05/06 06:57:00;;;;;;;19.02;10.52;;;17.40;88.20;;;17.34;70.00;101451.78;5009711;28;20092;-85
2022/05/06 06:59:27;;;;;;;20.27;10.63;;;17.40;86.80;;;17.28;70.96;101447.09;4996281;28;20116;-85
2022/05/06 07:01:55;;;;;;;22.92;11.18;;;17.40;87.90;;;17.27;70.68;101445.38;5006506;28;20045;-84
2022/05/06 07:04:22;;;;;;;25.95;10.65;;;17.40;87.10;;;17.26;70.75;101447.28;5007606;28;20402;-84
2022/05/06 07:12:20;;;;;;;17.38;10.70;;;17.50;86.80;;;17.19;69.85;101454.66;5007573;28;20108;-84
2022/05/06 07:14:47;;;;;;;19.73;10.80;;;17.60;87.00;;;17.08;73.18;101453.38;5009953;28;20052;-85
2022/05/06 07:17:14;;;;;;;22.88;11.27;;;17.60;87.50;;;17.13;70.62;101456.34;5002782;28;20047;-85
2022/05/06 07:19:41;;;;;;;20.23;11.55;;;17.70;86.00;;;17.19;68.02;101455.53;5008456;28;20075;-85
2022/05/06 07:22:09;;;;;;;19.00;11.57;;;17.70;84.10;;;17.32;68.57;101451.97;5003413;28;20068;-85
2022/05/06 07:24:41;;;;;;;21.95;11.82;;;17.80;84.60;;;17.43;68.11;101453.28;5006455;28;20042;-84
2022/05/06 07:27:08;;;;;;;22.52;11.23;;;17.80;84.70;;;17.44;67.60;101455.00;5004256;28;20049;-84
2022/05/06 07:29:37;;;;;;;20.65;10.88;;;17.90;83.70;;;17.52;67.98;101457.56;4996396;28;20042;-84
2022/05/06 07:32:06;;;;;;;19.70;10.80;;;17.90;84.60;;;17.52;67.29;101454.78;4992199;28;20037;-84
2022/05/06 07:34:33;;;;;;;21.10;11.63;;;18.00;83.90;;;17.44;66.91;101463.25;4990218;28;20120;-84
2022/05/06 07:37:01;;;;;;;19.13;10.85;;;18.10;83.30;;;17.41;68.47;101457.31;5005017;28;20126;-84
2022/05/06 07:39:28;;;;;;;17.70;11.02;;;18.20;84.00;;;17.53;68.00;101453.72;4990356;28;20503;-84
2022/05/06 07:41:56;;;;;;;19.40;11.43;;;18.30;84.70;;;17.58;68.32;101459.47;4999020;28;20048;-84
2022/05/06 07:44:23;;;;;;;17.35;10.50;;;18.30;83.80;;;17.52;68.05;101456.72;5008934;28;20046;-84
2022/05/06 07:46:52;;;;;;;21.60;12.18;;;18.30;84.00;;;17.39;65.96;101463.84;5000707;28;20510;-84
2022/05/06 07:49:19;;;;;;;18.33;11.10;;;18.40;82.80;;;17.58;67.86;101453.13;5002615;28;20105;-84
2022/05/06 07:51:48;;;;;;;22.27;11.60;;;18.40;84.20;;;17.72;67.44;101467.75;5008551;28;20463;-84
2022/05/06 07:54:16;;;;;;;18.65;11.77;;;18.50;83.60;;;17.76;65.98;101463.53;5009949;28;20073;-83
2022/05/06 07:56:54;;;;;;;19.83;12.13;;;18.50;82.80;;;17.79;65.72;101458.44;5010152;28;20498;-83
2022/05/06 07:59:24;;;;;;;19.20;12.43;;;18.60;83.40;;;17.81;64.91;101457.41;5007609;28;20414;-83
2022/05/06 08:04:40;;;;;;;23.67;11.23;;;18.60;82.30;;;17.85;65.02;101448.53;5005685;28;20061;-83
2022/05/06 08:07:14;;;;;;;20.45;11.63;;;18.70;81.40;;;17.81;63.27;101452.75;5007776;28;20085;-83
2022/05/06 08:09:43;;;;;;;23.17;12.02;;;18.70;81.90;;;17.94;64.14;101450.03;5020840;28;20088;-87
2022/05/06 08:12:14;;;;;;;22.65;11.20;;;18.80;81.60;;;17.97;62.99;101451.50;5010105;28;20050;-87
2022/05/06 08:14:42;;;;;;;19.23;10.38;;;18.80;80.10;;;18.22;63.80;101449.00;5006418;28;20131;-86
2022/05/06 08:17:11;;;;;;;19.33;10.25;;;18.90;81.10;;;18.42;64.08;101442.59;5010450;28;20081;-87
2022/05/06 08:19:38;;;;;;;18.98;10.27;;;19.00;81.90;;;18.46;64.19;101441.13;5006454;28;20045;-87
2022/05/06 08:22:06;;;;;;;24.05;11.20;;;19.00;81.70;;;18.46;61.78;101444.72;5012186;28;20486;-86
2022/05/06 08:24:33;;;;;;;18.17;9.43;;;19.10;78.90;;;18.51;62.30;101444.09;5008317;28;20046;-87
2022/05/06 08:27:01;;;;;;;20.05;10.10;;;19.10;80.60;;;18.60;62.95;101451.06;5010941;28;20045;-87
2022/05/06 08:29:28;;;;;;;17.83;10.50;;;19.10;80.50;;;18.61;61.72;101449.16;5000974;28;20044;-87
2022/05/06 08:31:56;;;;;;;19.80;10.45;;;19.20;79.30;;;18.63;62.10;101445.09;4994772;28;20503;-85
2022/05/06 08:34:24;;;;;;;16.25;9.40;;;19.20;79.70;;;18.66;60.23;101450.19;5033948;22;20051;-75
2022/05/06 08:36:51;;;;;;;16.88;9.27;;;19.30;78.20;;;18.68;60.07;101456.34;5029586;28;20156;-76
2022/05/06 08:39:19;;;;;;;16.73;9.40;;;19.30;77.60;;;18.70;61.46;101443.19;5031786;28;20662;-75
2022/05/06 08:41:46;;;;;;;15.88;9.40;;;19.40;78.80;;;18.81;60.57;101455.50;5030411;28;20048;-75
2022/05/06 08:52:34;;;;;;;18.95;10.93;;;19.50;77.30;;;18.62;61.47;101453.59;5013618;28;20050;-75
2022/05/06 08:55:02;;;;;;;19.33;10.97;;;19.60;77.30;;;18.64;60.32;101455.09;5018024;28;20042;-75
2022/05/06 08:57:31;;;;;;;19.65;11.02;;;19.60;77.10;;;18.73;59.62;101453.81;5010122;28;20134;-75
2022/05/06 08:59:59;;;;;;;19.10;11.30;;;19.70;77.10;;;18.58;59.91;101449.56;5014910;28;20092;-75
2022/05/06 09:02:26;;;;;;;19.17;10.65;;;19.70;75.80;;;18.59;60.21;101452.13;5011787;28;20117;-76
2022/05/06 09:04:55;;;;;;;15.38;10.70;;;19.70;75.40;;;18.57;61.18;101451.50;5010800;28;20490;-75
2022/05/06 09:07:25;;;;;;;18.30;11.93;;;19.70;76.60;;;18.58;60.31;101453.16;5019171;28;20041;-75
2022/05/06 09:10:13;;;;;;;21.00;12.68;;;19.70;76.50;;;18.45;60.97;101444.91;5017122;28;20121;-75
2022/05/06 09:12:42;;;;;;;19.23;11.43;;;19.70;75.50;;;18.45;61.44;101439.41;5014232;28;20041;-75
2022/05/06 09:17:57;;;;;;;20.60;12.88;;;19.80;76.00;;;18.64;62.14;101446.81;5007876;28;20044;-76
2022/05/06 09:20:27;;;;;;;19.75;13.25;;;19.80;76.40;;;18.67;61.89;101442.78;5014333;28;20046;-76
2022/05/06 09:22:55;;;;;;;22.40;14.52;;;19.80;76.40;;;18.76;61.53;101439.56;5016805;28;20037;-76
2022/05/06 09:25:39;;;;;;;23.85;14.98;;;19.90;76.40;;;18.78;61.50;101442.09;5031256;28;20120;-76
2022/05/06 09:28:20;;;;;;;25.27;14.85;;;20.00;77.30;;;18.78;61.88;101439.34;5029882;28;20103;-76
2022/05/06 09:31:03;;;;;;;28.27;17.50;;;20.00;76.30;;;18.69;59.40;101446.16;5009697;28;20042;-76
2022/05/06 09:33:32;;;;;;;31.15;15.43;;;20.00;73.50;;;18.76;60.87;101442.31;5006924;28;20048;-76
2022/05/06 09:36:00;;;;;;;24.15;16.38;;;20.00;75.20;;;18.78;60.14;101453.13;5005857;28;20048;-76
2022/05/06 09:38:29;;;;;;;24.10;15.90;;;20.00;74.20;;;18.83;60.87;101447.00;5011204;28;20147;-76
2022/05/06 09:40:58;;;;;;;26.33;15.60;;;20.10;75.50;;;18.94;59.88;101451.84;5009100;28;20108;-76
2022/05/06 09:43:27;;;;;;;26.73;16.25;;;20.10;74.70;;;19.01;58.59;101438.88;5010902;28;20050;-76
2022/05/06 09:45:54;;;;;;;24.38;15.95;;;20.20;73.10;;;18.94;59.09;101440.81;5011325;28;20034;-76
2022/05/06 09:48:22;;;;;;;24.35;15.70;;;20.20;73.30;;;19.14;59.53;101438.81;5010895;28;20050;-76
2022/05/06 09:50:50;;;;;;;21.60;16.17;;;20.30;74.30;;;19.17;56.53;101439.44;5009615;28;20045;-76
2022/05/06 09:53:22;;;;;;;30.92;16.33;;;20.30;71.90;;;19.15;58.72;101439.66;5011705;28;20064;-76
2022/05/06 09:55:49;;;;;;;22.65;14.25;;;20.30;73.20;;;19.18;56.55;101438.41;5010846;28;20077;-76
2022/05/06 09:58:18;;;;;;;23.13;14.95;;;20.40;72.10;;;19.25;57.19;101433.69;5009873;28;20041;-76
2022/05/06 10:00:46;;;;;;;20.63;13.27;;;20.40;72.40;;;19.43;58.66;101431.03;5009613;28;20038;-76
2022/05/06 10:03:13;;;;;;;21.52;13.52;;;20.50;72.90;;;19.64;59.69;101442.81;5010739;28;20574;-76
2022/05/06 10:05:41;;;;;;;18.77;10.77;;;20.60;74.40;;;19.70;59.72;101425.34;5008261;28;20073;-74
2022/05/06 10:08:15;;;;;;;21.33;13.98;;;20.70;74.50;;;19.80;58.87;101424.88;5008688;28;20498;-74
2022/05/06 10:10:55;;;;;;;18.83;12.45;;;20.80;73.60;;;19.78;58.85;101427.88;4990891;28;20097;-74
2022/05/06 10:13:25;;;;;;;16.75;11.98;;;20.80;73.50;;;19.80;55.76;101427.63;5017474;28;20046;-74
2022/05/06 10:15:55;;;;;;;17.77;11.38;;;20.90;72.00;;;19.79;56.42;101425.97;5010491;28;20120;-74
2022/05/06 10:18:36;;;;;;;18.67;11.65;;;20.90;71.30;;;19.69;57.08;101423.66;5010260;28;20033;-74
2022/05/06 10:21:05;;;;;;;19.70;13.05;;;20.90;71.70;;;19.72;56.99;101423.22;5025812;28;20120;-74
2022/05/06 10:23:51;;;;;;;22.50;13.90;;;21.00;71.70;;;19.72;56.70;101414.94;5008777;28;20091;-74
2022/05/06 10:26:43;;;;;;;20.33;12.55;;;21.00;70.20;;;19.75;56.53;101417.28;5010397;28;20041;-74
2022/05/06 10:32:54;;;;;;;24.90;16.75;;;21.10;70.10;;;19.64;54.84;101424.31;5006739;28;20061;-74
2022/05/06 10:35:39;;;;;;;26.83;18.02;;;21.10;68.70;;;19.74;56.75;101407.28;4990513;28;20050;-74
2022/05/06 10:38:30;;;;;;;26.92;17.65;;;21.10;70.50;;;19.64;54.89;101412.44;4991446;28;20612;-74
2022/05/06 10:41:01;;;;;;;24.45;17.13;;;21.10;68.00;;;19.70;56.43;101406.88;4990298;28;20078;-74
2022/05/06 10:43:53;;;;;;;25.13;16.57;;;21.10;69.20;;;19.63;54.12;101413.50;5018245;28;20513;-74
2022/05/06 10:46:36;;;;;;;27.52;18.02;;;21.10;68.10;;;19.45;56.41;101408.72;5025917;28;20350;-74
2022/05/06 10:49:52;;;;;;;29.73;18.08;;;21.00;68.70;;;19.32;57.38;101412.41;5008491;28;20133;-73
2022/05/06 10:52:41;;;;;;;40.63;26.92;;;21.00;69.20;;;19.33;58.72;101405.84;5010025;28;20108;-74
2022/05/06 10:55:12;;;;;;;35.60;24.98;;;21.00;70.30;;;19.40;59.13;101414.94;5007271;28;20077;-74
2022/05/06 10:58:03;;;;;;;;;;;21.00;70.70;;;19.27;60.64;101415.84;5008215;28;20042;-74
2022/05/06 11:00:37;;;;;;;43.58;29.77;;;21.00;71.00;;;19.07;60.65;101415.09;5010213;28;20205;-74
2022/05/06 11:03:05;;;;;;;44.88;30.27;;;21.00;71.50;;;19.11;60.23;101411.69;5009918;28;20038;-74
2022/05/06 11:05:33;;;;;;;51.30;29.90;;;20.90;71.10;;;18.98;59.84;101417.22;5008867;28;20473;-74